Detalii statie BONGA [00001D00]

Toti senzorii

Date Temperatura solului [C]Precipitatii [mm]Voltaj baterie [mV]Leaf Wetness [Min]HC Air temperature [C]HC Relative humidity [%]Punctul de roua [C]
medieminmaxsumaultimatimpmedieminmaxmediemediemin
2017-08-14 20:00:00 19.4 19.3 19.5 0 6992 21.45 21.26 21.57 0 0 0
2017-08-14 21:00:00 19.4 19.3 19.5 0 6982 21.02 20.6 21.36 0 0 0
2017-08-14 22:00:00 19.2 19 19.4 0 6972 20.82 20.43 21.08 0 0 0
2017-08-14 23:00:00 19.1 19.1 19.2 0 6962 21.05 20.91 21.16 0 0 0
2017-08-15 00:00:00 19.1 19 19.2 0 6942 21.15 21.09 21.25 0 0 0
2017-08-15 01:00:00 18.9 18.8 19.1 0 6932 20.97 20.77 21.23 0 0 0
2017-08-15 02:00:00 18.7 18.5 19 0 6922 20.64 20.49 20.77 0 0 0
2017-08-15 03:00:00 18.6 18.5 18.7 0 6914 20.33 20.07 20.62 0 0 0
2017-08-15 04:00:00 18.5 18.3 18.7 0 6904 20.01 19.9 20.18 0 0 0
2017-08-15 05:00:00 18.5 18.4 18.6 0 6904 19.89 19.48 20.22 0 0 0
2017-08-15 06:00:00 18.4 18.3 18.6 0 6904 19.04 18.79 19.35 0 0 0
2017-08-15 07:00:00 18.3 18.3 18.6 0 7196 19.02 18.79 19.73 0 0 0
2017-08-15 08:00:00 18.8 18.6 19.1 0 7264 19.89 19.53 20.32 0 0 0
2017-08-15 09:00:00 19.2 19.1 19.5 0 7254 20.37 20.09 20.57 0 0 0
2017-08-15 10:00:00 19.5 19.2 19.9 0 7332 20.83 20.37 21.33 0 0 0
2017-08-15 11:00:00 20.7 19.9 21.4 0 7332 23.29 21.49 24.51 0 0 0
2017-08-15 12:00:00 21.5 21.4 21.8 0 7332 24.32 23.86 24.76 0 0 0
2017-08-15 13:00:00 22.1 21.6 23 0 7332 25.87 24.57 27.21 0 0 0
2017-08-15 14:00:00 23.5 23.1 23.9 0 7332 27.71 26.75 28.29 0 0 0
2017-08-15 15:00:00 24.2 23.9 24.7 0 7294 28.21 27.46 28.94 0 0 0
2017-08-15 16:00:00 24.1 23.7 24.4 0 7324 27.14 26.5 27.78 0 0 0
2017-08-15 17:00:00 23 22.8 23.5 0 7324 26.4 26.34 26.58 0 0 0
2017-08-15 18:00:00 22.4 22.2 22.7 0 7324 25.89 25.45 26.33 0 0 0
2017-08-15 19:00:00 21.6 21.3 22 0 7000 24.49 23.4 25.22 0 0 0
2017-08-15 20:00:00 21.1 20.9 21.4 0 6972 23.29 22.24 23.61 0 0 0
2017-08-15 21:00:00 20.7 20.5 20.9 0 6972 22.3 21.69 22.87 0 0 0
2017-08-15 22:00:00 20.4 20.2 20.6 0 6962 21.81 21.33 22.4 0 0 0
2017-08-15 23:00:00 20.3 20.2 20.5 0 6952 21.52 20.95 21.75 0 0 0
2017-08-16 00:00:00 20 19.8 20.3 0 6942 20.78 20.55 21.25 0 0 0
2017-08-16 01:00:00 19.7 19.7 19.9 0 6932 20.24 19.91 20.56 0 0 0
2017-08-16 02:00:00 19.5 19.3 19.8 0 6922 19.48 19.15 19.87 0 0 0
2017-08-16 03:00:00 19.3 19.3 19.5 0 6914 19.3 19.02 19.4 0 0 0
2017-08-16 04:00:00 19.2 19 19.6 0 6904 19.06 18.72 19.31 0 0 0
2017-08-16 05:00:00 18.9 18.8 19.1 0 6894 18.43 18.02 18.71 0 0 0
2017-08-16 06:00:00 18.8 18.7 19 0 6952 18.07 17.74 18.52 0 0 0
2017-08-16 07:00:00 19.1 19 19.5 0 7294 19.04 18.27 20.39 0 0 0
2017-08-16 08:00:00 19.9 19.4 20.3 0 7342 21.31 20.54 22.14 0 0 0
2017-08-16 09:00:00 20.7 20.3 21.3 0 7342 23.44 22.54 24.56 0 0 0
2017-08-16 10:00:00 22 21.4 22.8 0 7332 25.57 24.53 26.76 0 0 0
2017-08-16 11:00:00 23.8 22.9 24.8 0 7332 28.2 26.99 29.34 0 0 0
2017-08-16 12:00:00 25.8 25 26.6 0 7332 30.46 29.39 31.28 0 0 0
2017-08-16 13:00:00 27 26.6 27.5 0 7332 32.3 30.92 33.47 0 0 0
2017-08-16 14:00:00 27.2 27.1 27.5 0 7254 33.26 31.83 34.32 0 0 0
2017-08-16 15:00:00 26.9 26.2 27.7 0 7314 33.06 31 35.46 0 0 0
2017-08-16 16:00:00 27.2 26.3 27.6 0 7196 32.41 30.35 33.68 0 0 0
2017-08-16 17:00:00 25.2 24.9 26 0 7166 28.38 27.68 29.71 0 0 0
2017-08-16 18:00:00 24 23.4 24.9 0 7000 26.96 24.7 28.48 0 0 0
2017-08-16 19:00:00 22.7 22.3 23.1 0 6962 23.49 22.26 24.48 0 0 0